sensor_id;sensor_type;location;lat;lon;timestamp;P1;durP1;ratioP1;P2;durP2;ratioP2
5137;SDS011;53959;53.626;11.410;2023-02-26T00:02:17;1.63;;;1.00;;
5137;SDS011;53959;53.626;11.410;2023-02-26T00:04:42;1.70;;;0.77;;
5137;SDS011;53959;53.626;11.410;2023-02-26T00:07:08;2.00;;;1.00;;
5137;SDS011;53959;53.626;11.410;2023-02-26T00:09:33;1.23;;;0.67;;
5137;SDS011;53959;53.626;11.410;2023-02-26T00:11:59;3.70;;;0.90;;
5137;SDS011;53959;53.626;11.410;2023-02-26T00:14:25;1.23;;;0.70;;
5137;SDS011;53959;53.626;11.410;2023-02-26T00:16:57;2.30;;;0.90;;
5137;SDS011;53959;53.626;11.410;2023-02-26T00:19:37;3.03;;;0.77;;
5137;SDS011;53959;53.626;11.410;2023-02-26T00:22:03;1.60;;;0.60;;
5137;SDS011;53959;53.626;11.410;2023-02-26T00:24:28;2.67;;;0.90;;
5137;SDS011;53959;53.626;11.410;2023-02-26T00:26:54;3.97;;;0.80;;
5137;SDS011;53959;53.626;11.410;2023-02-26T00:29:19;2.10;;;0.60;;
5137;SDS011;53959;53.626;11.410;2023-02-26T00:31:45;3.90;;;0.73;;
5137;SDS011;53959;53.626;11.410;2023-02-26T00:34:11;2.00;;;1.00;;
5137;SDS011;53959;53.626;11.410;2023-02-26T00:41:59;1.27;;;0.73;;
5137;SDS011;53959;53.626;11.410;2023-02-26T00:44:25;2.17;;;0.73;;
5137;SDS011;53959;53.626;11.410;2023-02-26T00:49:40;4.10;;;0.80;;
5137;SDS011;53959;53.626;11.410;2023-02-26T00:52:28;2.73;;;0.80;;
5137;SDS011;53959;53.626;11.410;2023-02-26T00:55:03;1.33;;;0.60;;
5137;SDS011;53959;53.626;11.410;2023-02-26T00:57:28;2.10;;;1.10;;
5137;SDS011;53959;53.626;11.410;2023-02-26T00:59:54;2.30;;;0.60;;
5137;SDS011;53959;53.626;11.410;2023-02-26T01:02:19;0.60;;;0.60;;
5137;SDS011;53959;53.626;11.410;2023-02-26T01:04:45;2.30;;;0.70;;
5137;SDS011;53959;53.626;11.410;2023-02-26T01:07:12;2.77;;;0.83;;
5137;SDS011;53959;53.626;11.410;2023-02-26T01:09:38;1.07;;;0.60;;
5137;SDS011;53959;53.626;11.410;2023-02-26T01:12:07;2.07;;;0.70;;
5137;SDS011;53959;53.626;11.410;2023-02-26T01:14:37;1.03;;;0.60;;
5137;SDS011;53959;53.626;11.410;2023-02-26T01:25:10;7.13;;;0.90;;
5137;SDS011;53959;53.626;11.410;2023-02-26T01:27:37;1.20;;;0.90;;
5137;SDS011;53959;53.626;11.410;2023-02-26T01:30:04;1.03;;;0.77;;
5137;SDS011;53959;53.626;11.410;2023-02-26T01:35:31;2.00;;;0.73;;
5137;SDS011;53959;53.626;11.410;2023-02-26T01:38:03;2.13;;;1.13;;
5137;SDS011;53959;53.626;11.410;2023-02-26T01:43:50;1.50;;;1.00;;
5137;SDS011;53959;53.626;11.410;2023-02-26T01:49:11;5.73;;;1.60;;
5137;SDS011;53959;53.626;11.410;2023-02-26T01:51:51;0.73;;;0.60;;
5137;SDS011;53959;53.626;11.410;2023-02-26T01:54:19;3.87;;;0.93;;
5137;SDS011;53959;53.626;11.410;2023-02-26T01:56:55;4.73;;;1.27;;
5137;SDS011;53959;53.626;11.410;2023-02-26T01:59:24;1.53;;;0.60;;
5137;SDS011;53959;53.626;11.410;2023-02-26T02:01:53;5.10;;;0.87;;
5137;SDS011;53959;53.626;11.410;2023-02-26T02:04:22;2.10;;;0.60;;
5137;SDS011;53959;53.626;11.410;2023-02-26T02:06:48;3.53;;;0.60;;
5137;SDS011;53959;53.626;11.410;2023-02-26T02:09:14;4.23;;;0.63;;
5137;SDS011;53959;53.626;11.410;2023-02-26T02:12:03;8.37;;;1.00;;
5137;SDS011;53959;53.626;11.410;2023-02-26T02:17:22;5.00;;;1.10;;
5137;SDS011;53959;53.626;11.410;2023-02-26T02:28:37;1.43;;;0.90;;
5137;SDS011;53959;53.626;11.410;2023-02-26T02:34:11;4.47;;;1.30;;
5137;SDS011;53959;53.626;11.410;2023-02-26T02:45:05;7.17;;;0.90;;
5137;SDS011;53959;53.626;11.410;2023-02-26T02:47:35;1.77;;;1.30;;
5137;SDS011;53959;53.626;11.410;2023-02-26T02:50:12;1.33;;;0.70;;
5137;SDS011;53959;53.626;11.410;2023-02-26T02:53:07;4.43;;;0.67;;
5137;SDS011;53959;53.626;11.410;2023-02-26T02:55:41;2.10;;;0.50;;
5137;SDS011;53959;53.626;11.410;2023-02-26T02:58:13;2.50;;;0.67;;
5137;SDS011;53959;53.626;11.410;2023-02-26T03:00:45;6.53;;;1.13;;
5137;SDS011;53959;53.626;11.410;2023-02-26T03:05:45;2.00;;;1.07;;
5137;SDS011;53959;53.626;11.410;2023-02-26T03:08:12;1.50;;;0.73;;
5137;SDS011;53959;53.626;11.410;2023-02-26T03:10:44;4.27;;;0.90;;
5137;SDS011;53959;53.626;11.410;2023-02-26T03:13:18;2.70;;;1.07;;
5137;SDS011;53959;53.626;11.410;2023-02-26T03:18:40;3.50;;;1.27;;
5137;SDS011;53959;53.626;11.410;2023-02-26T03:21:17;2.50;;;0.80;;
5137;SDS011;53959;53.626;11.410;2023-02-26T03:24:00;1.00;;;0.73;;
5137;SDS011;53959;53.626;11.410;2023-02-26T03:26:29;4.50;;;1.00;;
5137;SDS011;53959;53.626;11.410;2023-02-26T03:29:07;0.87;;;0.87;;
5137;SDS011;53959;53.626;11.410;2023-02-26T03:31:43;5.30;;;0.93;;
5137;SDS011;53959;53.626;11.410;2023-02-26T03:34:26;1.90;;;0.80;;
5137;SDS011;53959;53.626;11.410;2023-02-26T03:37:00;0.83;;;0.63;;
5137;SDS011;53959;53.626;11.410;2023-02-26T03:44:55;0.63;;;0.63;;
5137;SDS011;53959;53.626;11.410;2023-02-26T03:47:23;6.03;;;1.17;;
5137;SDS011;53959;53.626;11.410;2023-02-26T03:49:57;1.63;;;1.00;;
5137;SDS011;53959;53.626;11.410;2023-02-26T03:52:29;0.67;;;0.67;;
5137;SDS011;53959;53.626;11.410;2023-02-26T03:55:28;2.77;;;0.77;;
5137;SDS011;53959;53.626;11.410;2023-02-26T03:58:25;2.60;;;1.00;;
5137;SDS011;53959;53.626;11.410;2023-02-26T04:01:33;3.50;;;1.17;;
5137;SDS011;53959;53.626;11.410;2023-02-26T04:04:06;1.10;;;0.70;;
5137;SDS011;53959;53.626;11.410;2023-02-26T04:06:36;3.33;;;0.90;;
5137;SDS011;53959;53.626;11.410;2023-02-26T04:09:03;0.60;;;0.60;;
5137;SDS011;53959;53.626;11.410;2023-02-26T04:11:32;0.80;;;0.80;;
5137;SDS011;53959;53.626;11.410;2023-02-26T04:13:59;3.87;;;0.97;;
5137;SDS011;53959;53.626;11.410;2023-02-26T04:16:25;0.88;;;0.88;;
5137;SDS011;53959;53.626;11.410;2023-02-26T04:18:50;7.73;;;1.00;;
5137;SDS011;53959;53.626;11.410;2023-02-26T04:21:17;2.43;;;0.80;;
5137;SDS011;53959;53.626;11.410;2023-02-26T04:23:45;2.07;;;0.80;;
5137;SDS011;53959;53.626;11.410;2023-02-26T04:26:11;1.80;;;0.70;;
5137;SDS011;53959;53.626;11.410;2023-02-26T04:28:38;3.40;;;1.23;;
5137;SDS011;53959;53.626;11.410;2023-02-26T04:31:05;2.20;;;0.70;;
5137;SDS011;53959;53.626;11.410;2023-02-26T04:33:31;3.00;;;1.10;;
5137;SDS011;53959;53.626;11.410;2023-02-26T04:35:58;2.80;;;0.70;;
5137;SDS011;53959;53.626;11.410;2023-02-26T04:38:24;1.80;;;0.70;;
5137;SDS011;53959;53.626;11.410;2023-02-26T04:40:50;3.57;;;0.97;;
5137;SDS011;53959;53.626;11.410;2023-02-26T04:43:15;2.43;;;0.60;;
5137;SDS011;53959;53.626;11.410;2023-02-26T04:45:50;0.60;;;0.50;;
5137;SDS011;53959;53.626;11.410;2023-02-26T04:48:16;1.13;;;1.03;;
5137;SDS011;53959;53.626;11.410;2023-02-26T04:50:42;7.97;;;1.20;;
5137;SDS011;53959;53.626;11.410;2023-02-26T04:53:08;8.87;;;1.30;;
5137;SDS011;53959;53.626;11.410;2023-02-26T04:55:35;2.40;;;0.77;;
5137;SDS011;53959;53.626;11.410;2023-02-26T04:58:00;2.97;;;0.53;;
5137;SDS011;53959;53.626;11.410;2023-02-26T05:00:26;7.60;;;0.97;;
5137;SDS011;53959;53.626;11.410;2023-02-26T05:02:52;2.87;;;0.80;;
5137;SDS011;53959;53.626;11.410;2023-02-26T05:05:17;1.47;;;1.07;;
5137;SDS011;53959;53.626;11.410;2023-02-26T05:07:43;1.40;;;1.20;;
5137;SDS011;53959;53.626;11.410;2023-02-26T05:10:09;4.53;;;0.83;;
5137;SDS011;53959;53.626;11.410;2023-02-26T05:12:36;2.50;;;1.00;;
5137;SDS011;53959;53.626;11.410;2023-02-26T05:15:02;3.83;;;1.50;;
5137;SDS011;53959;53.626;11.410;2023-02-26T05:17:27;3.00;;;0.80;;
5137;SDS011;53959;53.626;11.410;2023-02-26T05:19:53;1.70;;;1.00;;
5137;SDS011;53959;53.626;11.410;2023-02-26T05:22:18;0.80;;;0.80;;
5137;SDS011;53959;53.626;11.410;2023-02-26T05:24:44;2.23;;;1.00;;
5137;SDS011;53959;53.626;11.410;2023-02-26T05:27:10;3.40;;;0.80;;
5137;SDS011;53959;53.626;11.410;2023-02-26T05:29:42;6.33;;;1.10;;
5137;SDS011;53959;53.626;11.410;2023-02-26T05:32:11;6.27;;;1.10;;
5137;SDS011;53959;53.626;11.410;2023-02-26T05:34:36;1.03;;;0.83;;
5137;SDS011;53959;53.626;11.410;2023-02-26T05:37:01;6.53;;;0.73;;
5137;SDS011;53959;53.626;11.410;2023-02-26T05:39:27;1.40;;;0.80;;
5137;SDS011;53959;53.626;11.410;2023-02-26T05:41:53;2.40;;;1.00;;
5137;SDS011;53959;53.626;11.410;2023-02-26T05:44:20;3.03;;;1.07;;
5137;SDS011;53959;53.626;11.410;2023-02-26T05:46:46;1.37;;;0.70;;
5137;SDS011;53959;53.626;11.410;2023-02-26T05:49:11;8.73;;;1.00;;
5137;SDS011;53959;53.626;11.410;2023-02-26T05:51:36;1.80;;;0.80;;
5137;SDS011;53959;53.626;11.410;2023-02-26T05:54:03;1.90;;;0.80;;
5137;SDS011;53959;53.626;11.410;2023-02-26T05:56:29;1.17;;;1.07;;
5137;SDS011;53959;53.626;11.410;2023-02-26T05:58:57;2.93;;;0.93;;
5137;SDS011;53959;53.626;11.410;2023-02-26T06:01:23;5.63;;;1.13;;
5137;SDS011;53959;53.626;11.410;2023-02-26T06:03:48;2.07;;;0.80;;
5137;SDS011;53959;53.626;11.410;2023-02-26T06:06:14;1.53;;;0.60;;
5137;SDS011;53959;53.626;11.410;2023-02-26T06:08:43;2.70;;;0.90;;
5137;SDS011;53959;53.626;11.410;2023-02-26T06:11:09;3.60;;;1.07;;
5137;SDS011;53959;53.626;11.410;2023-02-26T06:13:34;1.40;;;0.60;;
5137;SDS011;53959;53.626;11.410;2023-02-26T06:16:00;4.00;;;1.03;;
5137;SDS011;53959;53.626;11.410;2023-02-26T06:18:25;3.07;;;1.27;;
5137;SDS011;53959;53.626;11.410;2023-02-26T06:20:50;0.60;;;0.60;;
5137;SDS011;53959;53.626;11.410;2023-02-26T06:23:16;4.33;;;1.90;;
5137;SDS011;53959;53.626;11.410;2023-02-26T06:25:41;5.63;;;2.60;;
5137;SDS011;53959;53.626;11.410;2023-02-26T06:28:07;0.80;;;0.80;;
5137;SDS011;53959;53.626;11.410;2023-02-26T06:30:33;0.70;;;0.70;;
5137;SDS011;53959;53.626;11.410;2023-02-26T06:32:59;1.23;;;0.70;;
5137;SDS011;53959;53.626;11.410;2023-02-26T06:35:25;2.60;;;0.97;;
5137;SDS011;53959;53.626;11.410;2023-02-26T06:37:52;4.30;;;0.90;;
5137;SDS011;53959;53.626;11.410;2023-02-26T06:40:18;5.07;;;0.80;;
5137;SDS011;53959;53.626;11.410;2023-02-26T06:42:43;1.43;;;0.80;;
5137;SDS011;53959;53.626;11.410;2023-02-26T06:45:08;1.70;;;0.80;;
5137;SDS011;53959;53.626;11.410;2023-02-26T06:47:34;1.90;;;0.90;;
5137;SDS011;53959;53.626;11.410;2023-02-26T06:49:59;3.73;;;1.07;;
5137;SDS011;53959;53.626;11.410;2023-02-26T06:52:26;4.20;;;0.97;;
5137;SDS011;53959;53.626;11.410;2023-02-26T06:54:52;0.90;;;0.80;;
5137;SDS011;53959;53.626;11.410;2023-02-26T06:57:17;3.07;;;1.00;;
5137;SDS011;53959;53.626;11.410;2023-02-26T06:59:43;4.73;;;0.90;;
5137;SDS011;53959;53.626;11.410;2023-02-26T07:02:12;1.90;;;0.67;;
5137;SDS011;53959;53.626;11.410;2023-02-26T07:04:40;2.37;;;1.07;;
5137;SDS011;53959;53.626;11.410;2023-02-26T07:07:06;4.20;;;0.80;;
5137;SDS011;53959;53.626;11.410;2023-02-26T07:09:31;2.30;;;0.70;;
5137;SDS011;53959;53.626;11.410;2023-02-26T07:11:56;3.73;;;1.00;;
5137;SDS011;53959;53.626;11.410;2023-02-26T07:14:22;1.03;;;0.67;;
5137;SDS011;53959;53.626;11.410;2023-02-26T07:16:47;3.30;;;1.33;;
5137;SDS011;53959;53.626;11.410;2023-02-26T07:19:12;1.33;;;0.90;;
5137;SDS011;53959;53.626;11.410;2023-02-26T07:21:38;1.70;;;1.00;;
5137;SDS011;53959;53.626;11.410;2023-02-26T07:24:03;4.67;;;1.10;;
5137;SDS011;53959;53.626;11.410;2023-02-26T07:26:29;0.80;;;0.70;;
5137;SDS011;53959;53.626;11.410;2023-02-26T07:28:55;1.70;;;1.00;;
5137;SDS011;53959;53.626;11.410;2023-02-26T07:31:20;6.07;;;1.07;;
5137;SDS011;53959;53.626;11.410;2023-02-26T07:33:45;7.60;;;1.30;;
5137;SDS011;53959;53.626;11.410;2023-02-26T07:36:11;6.43;;;1.10;;
5137;SDS011;53959;53.626;11.410;2023-02-26T07:38:36;3.43;;;1.57;;
5137;SDS011;53959;53.626;11.410;2023-02-26T07:41:01;2.43;;;0.90;;
5137;SDS011;53959;53.626;11.410;2023-02-26T07:43:27;9.20;;;1.40;;
5137;SDS011;53959;53.626;11.410;2023-02-26T07:45:52;2.43;;;0.70;;
5137;SDS011;53959;53.626;11.410;2023-02-26T07:48:18;1.33;;;0.60;;
5137;SDS011;53959;53.626;11.410;2023-02-26T07:50:44;10.37;;;1.10;;
5137;SDS011;53959;53.626;11.410;2023-02-26T07:53:10;6.20;;;0.80;;
5137;SDS011;53959;53.626;11.410;2023-02-26T07:55:36;0.63;;;0.63;;
5137;SDS011;53959;53.626;11.410;2023-02-26T07:58:01;1.00;;;1.00;;
5137;SDS011;53959;53.626;11.410;2023-02-26T08:00:26;2.30;;;1.03;;
5137;SDS011;53959;53.626;11.410;2023-02-26T08:02:52;2.37;;;0.83;;
5137;SDS011;53959;53.626;11.410;2023-02-26T08:05:17;2.53;;;1.00;;
5137;SDS011;53959;53.626;11.410;2023-02-26T08:07:43;0.87;;;0.87;;
5137;SDS011;53959;53.626;11.410;2023-02-26T08:10:08;1.77;;;1.10;;
5137;SDS011;53959;53.626;11.410;2023-02-26T08:12:34;3.07;;;1.57;;
5137;SDS011;53959;53.626;11.410;2023-02-26T08:15:00;2.97;;;0.77;;
5137;SDS011;53959;53.626;11.410;2023-02-26T08:17:26;4.43;;;0.80;;
5137;SDS011;53959;53.626;11.410;2023-02-26T08:19:51;8.37;;;2.23;;
5137;SDS011;53959;53.626;11.410;2023-02-26T08:22:17;5.20;;;0.90;;
5137;SDS011;53959;53.626;11.410;2023-02-26T08:24:43;4.77;;;1.10;;
5137;SDS011;53959;53.626;11.410;2023-02-26T08:27:09;3.17;;;1.50;;
5137;SDS011;53959;53.626;11.410;2023-02-26T08:29:34;5.73;;;0.97;;
5137;SDS011;53959;53.626;11.410;2023-02-26T08:32:00;7.70;;;1.03;;
5137;SDS011;53959;53.626;11.410;2023-02-26T08:34:25;4.93;;;1.23;;
5137;SDS011;53959;53.626;11.410;2023-02-26T08:36:50;6.27;;;1.00;;
5137;SDS011;53959;53.626;11.410;2023-02-26T08:39:16;5.70;;;1.07;;
5137;SDS011;53959;53.626;11.410;2023-02-26T08:41:41;4.93;;;1.20;;
5137;SDS011;53959;53.626;11.410;2023-02-26T08:44:07;4.70;;;1.00;;
5137;SDS011;53959;53.626;11.410;2023-02-26T08:46:32;3.13;;;0.87;;
5137;SDS011;53959;53.626;11.410;2023-02-26T08:48:58;1.90;;;0.70;;
5137;SDS011;53959;53.626;11.410;2023-02-26T08:51:24;2.77;;;0.80;;
5137;SDS011;53959;53.626;11.410;2023-02-26T08:53:49;3.83;;;1.10;;
5137;SDS011;53959;53.626;11.410;2023-02-26T08:56:15;3.40;;;0.67;;
5137;SDS011;53959;53.626;11.410;2023-02-26T08:58:42;1.50;;;0.60;;
5137;SDS011;53959;53.626;11.410;2023-02-26T09:01:08;1.53;;;0.80;;
5137;SDS011;53959;53.626;11.410;2023-02-26T09:03:33;2.23;;;0.77;;
5137;SDS011;53959;53.626;11.410;2023-02-26T09:05:59;5.67;;;1.07;;
5137;SDS011;53959;53.626;11.410;2023-02-26T09:08:24;2.63;;;1.13;;
5137;SDS011;53959;53.626;11.410;2023-02-26T09:10:50;0.80;;;0.80;;
5137;SDS011;53959;53.626;11.410;2023-02-26T09:13:15;4.20;;;1.37;;
5137;SDS011;53959;53.626;11.410;2023-02-26T09:15:42;1.23;;;1.10;;
5137;SDS011;53959;53.626;11.410;2023-02-26T09:18:09;2.20;;;0.50;;
5137;SDS011;53959;53.626;11.410;2023-02-26T09:20:40;2.40;;;1.00;;
5137;SDS011;53959;53.626;11.410;2023-02-26T09:23:08;1.10;;;1.00;;
5137;SDS011;53959;53.626;11.410;2023-02-26T09:25:34;5.70;;;0.70;;
5137;SDS011;53959;53.626;11.410;2023-02-26T09:28:00;7.60;;;0.80;;
5137;SDS011;53959;53.626;11.410;2023-02-26T09:30:25;3.73;;;0.90;;
5137;SDS011;53959;53.626;11.410;2023-02-26T09:32:50;5.70;;;0.97;;
5137;SDS011;53959;53.626;11.410;2023-02-26T09:35:16;1.37;;;0.60;;
5137;SDS011;53959;53.626;11.410;2023-02-26T09:37:41;5.90;;;1.77;;
5137;SDS011;53959;53.626;11.410;2023-02-26T09:40:07;2.10;;;1.10;;
5137;SDS011;53959;53.626;11.410;2023-02-26T09:45:37;2.53;;;1.50;;
5137;SDS011;53959;53.626;11.410;2023-02-26T09:48:05;2.10;;;0.80;;
5137;SDS011;53959;53.626;11.410;2023-02-26T09:50:38;3.90;;;1.00;;
5137;SDS011;53959;53.626;11.410;2023-02-26T09:55:41;2.00;;;0.90;;
5137;SDS011;53959;53.626;11.410;2023-02-26T09:58:42;3.33;;;1.13;;
5137;SDS011;53959;53.626;11.410;2023-02-26T10:06:19;2.83;;;1.23;;
5137;SDS011;53959;53.626;11.410;2023-02-26T10:08:57;1.60;;;1.47;;
5137;SDS011;53959;53.626;11.410;2023-02-26T10:11:48;2.63;;;1.40;;
5137;SDS011;53959;53.626;11.410;2023-02-26T10:14:20;2.20;;;1.10;;
5137;SDS011;53959;53.626;11.410;2023-02-26T10:16:51;4.40;;;0.90;;
5137;SDS011;53959;53.626;11.410;2023-02-26T10:19:23;2.70;;;0.87;;
5137;SDS011;53959;53.626;11.410;2023-02-26T10:24:41;5.80;;;1.00;;
5137;SDS011;53959;53.626;11.410;2023-02-26T10:27:15;2.30;;;1.13;;
5137;SDS011;53959;53.626;11.410;2023-02-26T10:29:48;2.90;;;0.90;;
5137;SDS011;53959;53.626;11.410;2023-02-26T10:35:04;4.10;;;0.70;;
5137;SDS011;53959;53.626;11.410;2023-02-26T10:37:43;3.60;;;0.70;;
5137;SDS011;53959;53.626;11.410;2023-02-26T10:43:17;1.07;;;0.60;;
5137;SDS011;53959;53.626;11.410;2023-02-26T10:45:54;2.70;;;0.87;;
5137;SDS011;53959;53.626;11.410;2023-02-26T10:51:16;0.60;;;0.47;;
5137;SDS011;53959;53.626;11.410;2023-02-26T10:53:45;5.13;;;0.80;;
5137;SDS011;53959;53.626;11.410;2023-02-26T10:56:19;0.50;;;0.50;;
5137;SDS011;53959;53.626;11.410;2023-02-26T10:58:48;1.47;;;0.93;;
5137;SDS011;53959;53.626;11.410;2023-02-26T11:01:16;0.87;;;0.80;;
5137;SDS011;53959;53.626;11.410;2023-02-26T11:03:45;3.60;;;0.60;;
5137;SDS011;53959;53.626;11.410;2023-02-26T11:06:20;2.30;;;0.73;;
5137;SDS011;53959;53.626;11.410;2023-02-26T11:08:51;1.07;;;0.97;;
5137;SDS011;53959;53.626;11.410;2023-02-26T11:11:36;4.53;;;0.70;;
5137;SDS011;53959;53.626;11.410;2023-02-26T11:14:13;1.90;;;0.70;;
5137;SDS011;53959;53.626;11.410;2023-02-26T11:16:49;5.00;;;1.37;;
5137;SDS011;53959;53.626;11.410;2023-02-26T11:19:19;1.17;;;0.73;;
5137;SDS011;53959;53.626;11.410;2023-02-26T11:21:51;2.43;;;0.77;;
5137;SDS011;53959;53.626;11.410;2023-02-26T11:24:24;3.43;;;0.60;;
5137;SDS011;53959;53.626;11.410;2023-02-26T11:26:54;1.80;;;0.87;;
5137;SDS011;53959;53.626;11.410;2023-02-26T11:29:21;1.80;;;0.60;;
5137;SDS011;53959;53.626;11.410;2023-02-26T11:31:52;0.53;;;0.50;;
5137;SDS011;53959;53.626;11.410;2023-02-26T11:34:22;1.10;;;0.63;;
5137;SDS011;53959;53.626;11.410;2023-02-26T11:36:49;0.70;;;0.70;;
5137;SDS011;53959;53.626;11.410;2023-02-26T11:39:24;1.13;;;0.50;;
5137;SDS011;53959;53.626;11.410;2023-02-26T11:41:54;0.60;;;0.50;;
5137;SDS011;53959;53.626;11.410;2023-02-26T11:44:31;2.30;;;0.97;;
5137;SDS011;53959;53.626;11.410;2023-02-26T11:47:01;1.37;;;0.70;;
5137;SDS011;53959;53.626;11.410;2023-02-26T11:49:44;0.63;;;0.63;;
5137;SDS011;53959;53.626;11.410;2023-02-26T11:52:15;0.50;;;0.50;;
5137;SDS011;53959;53.626;11.410;2023-02-26T11:54:44;1.17;;;0.53;;
5137;SDS011;53959;53.626;11.410;2023-02-26T11:57:14;1.53;;;0.70;;
5137;SDS011;53959;53.626;11.410;2023-02-26T11:59:42;0.70;;;0.70;;
5137;SDS011;53959;53.626;11.410;2023-02-26T12:02:12;0.90;;;0.90;;
5137;SDS011;53959;53.626;11.410;2023-02-26T12:04:42;2.00;;;0.90;;
5137;SDS011;53959;53.626;11.410;2023-02-26T12:07:13;2.30;;;1.07;;
5137;SDS011;53959;53.626;11.410;2023-02-26T12:09:39;1.27;;;0.90;;
5137;SDS011;53959;53.626;11.410;2023-02-26T12:12:11;1.17;;;0.70;;
5137;SDS011;53959;53.626;11.410;2023-02-26T12:14:46;1.57;;;1.27;;
5137;SDS011;53959;53.626;11.410;2023-02-26T12:28:51;0.50;;;0.50;;
5137;SDS011;53959;53.626;11.410;2023-02-26T12:40:33;1.63;;;0.60;;
5137;SDS011;53959;53.626;11.410;2023-02-26T12:49:30;0.73;;;0.60;;
5137;SDS011;53959;53.626;11.410;2023-02-26T12:57:29;8.23;;;1.10;;
5137;SDS011;53959;53.626;11.410;2023-02-26T13:03:02;2.20;;;0.87;;
5137;SDS011;53959;53.626;11.410;2023-02-26T13:06:25;1.13;;;0.73;;
5137;SDS011;53959;53.626;11.410;2023-02-26T13:20:11;3.13;;;1.03;;
5137;SDS011;53959;53.626;11.410;2023-02-26T13:22:43;0.70;;;0.60;;
5137;SDS011;53959;53.626;11.410;2023-02-26T13:27:47;2.30;;;0.83;;
5137;SDS011;53959;53.626;11.410;2023-02-26T13:32:55;1.83;;;0.60;;
5137;SDS011;53959;53.626;11.410;2023-02-26T13:37:59;2.53;;;0.93;;
5137;SDS011;53959;53.626;11.410;2023-02-26T13:40:44;0.80;;;0.50;;
5137;SDS011;53959;53.626;11.410;2023-02-26T13:43:18;0.40;;;0.40;;
5137;SDS011;53959;53.626;11.410;2023-02-26T13:49:30;1.07;;;0.77;;
5137;SDS011;53959;53.626;11.410;2023-02-26T13:51:43;1.77;;;0.73;;
5137;SDS011;53959;53.626;11.410;2023-02-26T14:01:32;2.10;;;0.70;;
5137;SDS011;53959;53.626;11.410;2023-02-26T14:06:47;1.63;;;0.73;;
5137;SDS011;53959;53.626;11.410;2023-02-26T14:14:23;1.67;;;0.87;;
5137;SDS011;53959;53.626;11.410;2023-02-26T14:19:37;2.90;;;0.70;;
5137;SDS011;53959;53.626;11.410;2023-02-26T14:28:17;1.10;;;0.70;;
5137;SDS011;53959;53.626;11.410;2023-02-26T14:31:45;2.97;;;0.80;;
5137;SDS011;53959;53.626;11.410;2023-02-26T14:33:56;3.43;;;1.13;;
5137;SDS011;53959;53.626;11.410;2023-02-26T14:39:19;1.70;;;0.90;;
5137;SDS011;53959;53.626;11.410;2023-02-26T14:41:49;1.60;;;0.87;;
5137;SDS011;53959;53.626;11.410;2023-02-26T14:44:22;1.47;;;0.70;;
5137;SDS011;53959;53.626;11.410;2023-02-26T14:46:52;1.95;;;0.70;;
5137;SDS011;53959;53.626;11.410;2023-02-26T14:49:22;3.27;;;1.30;;
5137;SDS011;53959;53.626;11.410;2023-02-26T14:51:59;0.83;;;0.60;;
5137;SDS011;53959;53.626;11.410;2023-02-26T14:55:02;1.93;;;0.77;;
5137;SDS011;53959;53.626;11.410;2023-02-26T15:00:42;2.50;;;0.90;;
5137;SDS011;53959;53.626;11.410;2023-02-26T15:06:25;3.17;;;0.73;;
5137;SDS011;53959;53.626;11.410;2023-02-26T15:09:04;2.63;;;0.97;;
5137;SDS011;53959;53.626;11.410;2023-02-26T15:11:49;1.60;;;0.70;;
5137;SDS011;53959;53.626;11.410;2023-02-26T15:22:27;1.40;;;0.70;;
5137;SDS011;53959;53.626;11.410;2023-02-26T15:25:15;1.70;;;1.00;;
5137;SDS011;53959;53.626;11.410;2023-02-26T15:27:49;1.80;;;1.03;;
5137;SDS011;53959;53.626;11.410;2023-02-26T15:30:15;0.80;;;0.80;;
5137;SDS011;53959;53.626;11.410;2023-02-26T15:32:41;3.33;;;0.87;;
5137;SDS011;53959;53.626;11.410;2023-02-26T15:35:13;1.83;;;0.93;;
5137;SDS011;53959;53.626;11.410;2023-02-26T15:37:47;1.17;;;0.90;;
5137;SDS011;53959;53.626;11.410;2023-02-26T15:40:14;2.30;;;0.90;;
5137;SDS011;53959;53.626;11.410;2023-02-26T15:42:41;1.00;;;1.00;;
5137;SDS011;53959;53.626;11.410;2023-02-26T15:45:14;0.83;;;0.80;;
5137;SDS011;53959;53.626;11.410;2023-02-26T15:47:50;2.53;;;0.70;;
5137;SDS011;53959;53.626;11.410;2023-02-26T15:50:19;1.17;;;0.80;;
5137;SDS011;53959;53.626;11.410;2023-02-26T15:52:50;7.83;;;1.20;;
5137;SDS011;53959;53.626;11.410;2023-02-26T15:55:20;1.60;;;1.50;;
5137;SDS011;53959;53.626;11.410;2023-02-26T15:57:46;1.80;;;0.77;;
5137;SDS011;53959;53.626;11.410;2023-02-26T16:00:15;1.63;;;1.27;;
5137;SDS011;53959;53.626;11.410;2023-02-26T16:02:49;1.73;;;1.40;;
5137;SDS011;53959;53.626;11.410;2023-02-26T16:05:14;2.77;;;1.10;;
5137;SDS011;53959;53.626;11.410;2023-02-26T16:07:40;2.00;;;0.90;;
5137;SDS011;53959;53.626;11.410;2023-02-26T16:10:07;2.10;;;0.90;;
5137;SDS011;53959;53.626;11.410;2023-02-26T16:12:42;2.80;;;1.07;;
5137;SDS011;53959;53.626;11.410;2023-02-26T16:15:14;1.43;;;1.00;;
5137;SDS011;53959;53.626;11.410;2023-02-26T16:17:43;1.73;;;1.07;;
5137;SDS011;53959;53.626;11.410;2023-02-26T16:20:21;2.33;;;1.10;;
5137;SDS011;53959;53.626;11.410;2023-02-26T16:23:03;1.63;;;1.20;;
5137;SDS011;53959;53.626;11.410;2023-02-26T16:25:35;3.20;;;1.03;;
5137;SDS011;53959;53.626;11.410;2023-02-26T16:30:37;2.63;;;1.10;;
5137;SDS011;53959;53.626;11.410;2023-02-26T16:33:08;4.10;;;1.10;;
5137;SDS011;53959;53.626;11.410;2023-02-26T16:35:37;1.43;;;1.30;;
5137;SDS011;53959;53.626;11.410;2023-02-26T16:38:17;3.33;;;1.13;;
5137;SDS011;53959;53.626;11.410;2023-02-26T16:40:56;14.67;;;1.93;;
5137;SDS011;53959;53.626;11.410;2023-02-26T16:45:58;3.03;;;1.33;;
5137;SDS011;53959;53.626;11.410;2023-02-26T16:48:26;4.80;;;1.03;;
5137;SDS011;53959;53.626;11.410;2023-02-26T16:50:58;1.37;;;1.27;;
5137;SDS011;53959;53.626;11.410;2023-02-26T16:53:34;3.47;;;1.60;;
5137;SDS011;53959;53.626;11.410;2023-02-26T16:56:02;1.80;;;1.30;;
5137;SDS011;53959;53.626;11.410;2023-02-26T16:58:29;2.30;;;1.40;;
5137;SDS011;53959;53.626;11.410;2023-02-26T17:01:06;3.20;;;1.20;;
5137;SDS011;53959;53.626;11.410;2023-02-26T17:03:36;2.70;;;1.43;;
5137;SDS011;53959;53.626;11.410;2023-02-26T17:06:07;3.83;;;1.40;;
5137;SDS011;53959;53.626;11.410;2023-02-26T17:08:46;2.60;;;1.00;;
5137;SDS011;53959;53.626;11.410;2023-02-26T17:11:20;2.27;;;1.37;;
5137;SDS011;53959;53.626;11.410;2023-02-26T17:13:56;10.83;;;3.00;;
5137;SDS011;53959;53.626;11.410;2023-02-26T17:16:27;5.00;;;1.37;;
5137;SDS011;53959;53.626;11.410;2023-02-26T17:18:53;5.70;;;1.80;;
5137;SDS011;53959;53.626;11.410;2023-02-26T17:21:19;7.63;;;2.20;;
5137;SDS011;53959;53.626;11.410;2023-02-26T17:23:44;6.70;;;2.57;;
5137;SDS011;53959;53.626;11.410;2023-02-26T17:26:10;10.47;;;2.23;;
5137;SDS011;53959;53.626;11.410;2023-02-26T17:28:36;3.60;;;2.10;;
5137;SDS011;53959;53.626;11.410;2023-02-26T17:31:05;3.90;;;2.37;;
5137;SDS011;53959;53.626;11.410;2023-02-26T17:33:31;5.87;;;3.50;;
5137;SDS011;53959;53.626;11.410;2023-02-26T17:35:58;4.00;;;2.53;;
5137;SDS011;53959;53.626;11.410;2023-02-26T17:38:25;3.90;;;2.50;;
5137;SDS011;53959;53.626;11.410;2023-02-26T17:40:51;10.40;;;3.70;;
5137;SDS011;53959;53.626;11.410;2023-02-26T17:43:19;11.17;;;3.27;;
5137;SDS011;53959;53.626;11.410;2023-02-26T17:45:47;8.83;;;4.03;;
5137;SDS011;53959;53.626;11.410;2023-02-26T17:48:13;12.17;;;3.90;;
5137;SDS011;53959;53.626;11.410;2023-02-26T17:50:42;6.40;;;3.83;;
5137;SDS011;53959;53.626;11.410;2023-02-26T17:53:16;12.43;;;5.33;;
5137;SDS011;53959;53.626;11.410;2023-02-26T17:55:43;9.90;;;3.80;;
5137;SDS011;53959;53.626;11.410;2023-02-26T17:58:14;6.67;;;2.70;;
5137;SDS011;53959;53.626;11.410;2023-02-26T18:00:42;5.73;;;3.27;;
5137;SDS011;53959;53.626;11.410;2023-02-26T18:03:09;9.53;;;4.27;;
5137;SDS011;53959;53.626;11.410;2023-02-26T18:05:34;5.13;;;3.30;;
5137;SDS011;53959;53.626;11.410;2023-02-26T18:08:05;7.17;;;3.30;;
5137;SDS011;53959;53.626;11.410;2023-02-26T18:10:31;9.63;;;3.77;;